Schifflange, Luxembourg
Current Conditions -  °F | °C
As of 8:20 PM on Friday 21 Nov 2014 (Local Time) from ELLX Reporting Station
Overcast Overcast  
Wind Chill: 40°   Ceiling: 800
Heat Index: 43°   Visibility: 5mi
Dew Point: 39°   Wind: 5mph
Humidity: 87%   Direction: 100°E
Pressure: 30.09"   Gusts: NA
Location:  49.51°N, 6.01°E
Report Text: ELLX 211920Z 10004KT 070V140 8000 OVC008 06/04 Q1019 NOSIG
Loading
Personal Weather Stations






























Interactive Weather Map New forecast layout! Learn more

10-Day Weather Forecast

Advertisements
Track Severe Weather on mobile